createdAt,value
2018-01-14T00:01:30.998Z,20.97
2018-01-14T00:07:34.499Z,24.20
2018-01-14T00:13:38.069Z,17.10
2018-01-14T00:19:42.332Z,17.00
2018-01-14T00:25:46.885Z,17.97
2018-01-14T00:31:50.413Z,17.27
2018-01-14T00:37:54.013Z,18.37
2018-01-14T00:43:58.471Z,18.33
2018-01-14T00:50:01.962Z,22.97
2018-01-14T00:56:06.197Z,22.20
2018-01-14T01:02:09.667Z,22.63
2018-01-14T01:08:13.150Z,16.40
2018-01-14T01:14:17.376Z,18.27
2018-01-14T01:20:20.873Z,18.83
2018-01-14T01:26:25.472Z,19.23
2018-01-14T01:32:29.058Z,20.77
2018-01-14T01:38:32.556Z,21.87
2018-01-14T01:44:36.803Z,20.37
2018-01-14T01:50:40.266Z,21.10
2018-01-14T01:56:43.746Z,21.37
2018-01-14T02:02:47.219Z,22.33
2018-01-14T02:08:50.705Z,20.07
2018-01-14T02:14:54.320Z,21.50
2018-01-14T02:20:58.649Z,18.53
2018-01-14T02:27:02.149Z,21.07
2018-01-14T02:33:05.671Z,19.97
2018-01-14T02:39:09.947Z,19.33
2018-01-14T02:45:14.192Z,22.03
2018-01-14T02:51:17.676Z,19.97
2018-01-14T02:57:21.210Z,18.17
2018-01-14T03:03:25.163Z,17.73
2018-01-14T03:09:28.698Z,14.90
2018-01-14T03:15:32.201Z,19.17
2018-01-14T03:21:36.468Z,22.37
2018-01-14T03:27:39.961Z,21.67
2018-01-14T03:33:43.500Z,18.40
2018-01-14T03:39:47.048Z,15.27
2018-01-14T03:45:51.336Z,17.40
2018-01-14T03:51:55.333Z,17.70
2018-01-14T03:57:58.936Z,15.77
2018-01-14T04:04:03.260Z,15.10
2018-01-14T04:10:06.761Z,16.33
2018-01-14T04:16:11.068Z,17.87
2018-01-14T04:22:14.586Z,15.17
2018-01-14T04:28:18.845Z,14.17
2018-01-14T04:34:22.435Z,14.33
2018-01-14T04:40:26.123Z,16.03
2018-01-14T04:46:29.861Z,14.30
2018-01-14T04:52:33.494Z,16.47
2018-01-14T04:58:37.743Z,15.77
2018-01-14T05:04:41.271Z,17.97
2018-01-14T05:10:44.888Z,14.40
2018-01-14T05:16:49.432Z,17.03
2018-01-14T05:22:52.944Z,18.17
2018-01-14T05:28:57.067Z,16.70
2018-01-14T05:35:00.782Z,17.87
2018-01-14T05:41:04.482Z,43.40
2018-01-14T05:56:53.313Z,21.80
2018-01-14T06:02:57.267Z,17.00
2018-01-14T06:09:01.516Z,21.53
2018-01-14T06:15:05.026Z,22.17
2018-01-14T06:21:09.298Z,26.00
2018-01-14T06:27:13.687Z,25.80
2018-01-14T06:33:17.272Z,22.80
2018-01-14T06:39:20.930Z,24.67
2018-01-14T06:45:24.557Z,26.47
2018-01-14T06:51:28.016Z,30.70
2018-01-14T06:57:31.533Z,26.53
2018-01-14T07:03:35.779Z,30.10
2018-01-14T07:09:39.334Z,27.17
2018-01-14T07:15:42.825Z,30.83
2018-01-14T07:21:47.048Z,37.20
2018-01-14T07:27:50.508Z,35.10
2018-01-14T07:33:54.882Z,39.03
2018-01-14T07:39:58.386Z,40.63
2018-01-14T07:46:01.878Z,42.17
2018-01-14T07:52:05.381Z,34.63
2018-01-14T07:58:09.638Z,37.33
2018-01-14T08:04:14.677Z,40.47
2018-01-14T08:10:18.393Z,50.20
2018-01-14T08:16:21.902Z,40.93
2018-01-14T08:22:25.594Z,45.07
2018-01-14T08:28:29.246Z,43.73
2018-01-14T08:34:32.867Z,38.07
2018-01-14T08:40:36.440Z,34.27
2018-01-14T08:46:40.029Z,37.20
2018-01-14T08:52:43.482Z,43.60
2018-01-14T08:58:46.947Z,36.77
2018-01-14T09:04:51.215Z,40.60
2018-01-14T09:10:55.609Z,39.93
2018-01-14T09:16:59.193Z,38.03
2018-01-14T09:23:02.890Z,36.57
2018-01-14T09:29:06.403Z,45.13
2018-01-14T09:35:09.879Z,40.30
2018-01-14T09:41:13.409Z,40.10
2018-01-14T09:47:16.896Z,36.27
2018-01-14T09:53:20.395Z,36.93
2018-01-14T09:59:24.031Z,42.10
2018-01-14T10:05:28.070Z,42.90
2018-01-14T10:11:31.588Z,44.50
2018-01-14T10:17:35.786Z,44.40
2018-01-14T10:23:39.536Z,38.07
2018-01-14T10:29:43.090Z,44.10
2018-01-14T10:35:46.731Z,43.40
2018-01-14T10:41:50.241Z,44.87
2018-01-14T10:47:53.876Z,43.20
2018-01-14T10:53:57.496Z,44.23
2018-01-14T11:00:01.111Z,40.93
2018-01-14T11:06:04.574Z,43.13
2018-01-14T11:12:08.789Z,40.23
2018-01-14T11:18:12.289Z,43.27
2018-01-14T11:24:15.752Z,42.73
2018-01-14T11:30:20.152Z,41.40
2018-01-14T11:36:23.761Z,38.53
2018-01-14T11:42:27.490Z,33.77
2018-01-14T11:48:31.039Z,35.07
2018-01-14T11:54:34.510Z,33.97
2018-01-14T12:00:37.950Z,36.17
2018-01-14T12:06:41.410Z,31.67
2018-01-14T12:12:44.950Z,36.77
2018-01-14T12:18:48.422Z,33.37
2018-01-14T12:24:51.885Z,31.73
2018-01-14T12:30:55.413Z,35.80
2018-01-14T12:36:59.048Z,38.73
2018-01-14T12:43:02.510Z,31.60
2018-01-14T12:49:05.965Z,32.23
2018-01-14T12:55:09.585Z,36.37
2018-01-14T13:01:13.114Z,30.50
2018-01-14T13:07:16.576Z,35.93
2018-01-14T13:13:20.109Z,36.93
2018-01-14T13:19:23.792Z,34.40
2018-01-14T13:25:27.565Z,30.10
2018-01-14T13:31:31.810Z,31.80
2018-01-14T13:37:35.290Z,25.50
2018-01-14T13:43:38.758Z,26.40
2018-01-14T13:49:42.985Z,30.63
2018-01-14T13:55:47.242Z,30.93
2018-01-14T14:01:50.715Z,31.40
2018-01-14T14:07:54.324Z,29.90
2018-01-14T14:13:58.585Z,32.93
2018-01-14T14:20:02.814Z,34.47
2018-01-14T14:26:06.307Z,34.00
2018-01-14T14:32:10.665Z,36.20
2018-01-14T14:38:14.121Z,32.90
2018-01-14T14:44:17.579Z,35.50
2018-01-14T14:50:21.094Z,37.60
2018-01-14T14:56:25.175Z,39.43
2018-01-14T15:02:28.670Z,32.63
2018-01-14T15:08:32.887Z,31.87
2018-01-14T15:14:36.615Z,47.93
2018-01-14T15:20:40.092Z,43.40
2018-01-14T15:26:43.571Z,36.23
2018-01-14T15:32:47.083Z,41.37
2018-01-14T15:38:50.535Z,34.57
2018-01-14T15:44:54.240Z,38.73
2018-01-14T15:50:57.771Z,43.87
2018-01-14T15:57:01.521Z,39.13
2018-01-14T16:03:05.062Z,38.17
2018-01-14T16:09:08.547Z,35.70
2018-01-14T16:15:11.998Z,38.50
2018-01-14T16:21:15.489Z,37.90
2018-01-14T16:27:19.065Z,39.00
2018-01-14T16:33:22.558Z,39.10
2018-01-14T16:39:26.277Z,38.30
2018-01-14T16:45:29.849Z,38.60
2018-01-14T16:51:33.319Z,42.97
2018-01-14T16:57:36.796Z,41.17
2018-01-14T17:03:40.249Z,39.93
2018-01-14T17:09:43.718Z,36.40
2018-01-14T17:15:47.174Z,39.30
2018-01-14T17:21:51.389Z,77.80
2018-01-14T17:27:54.854Z,42.70
2018-01-14T17:33:59.122Z,43.70
2018-01-14T17:40:02.643Z,45.90
2018-01-14T17:46:06.876Z,40.23
2018-01-14T17:52:10.447Z,43.97
2018-01-14T17:58:13.970Z,42.90
2018-01-14T18:04:17.455Z,45.97
2018-01-14T18:10:21.039Z,50.03
2018-01-14T18:16:25.468Z,38.63
2018-01-14T18:22:29.014Z,44.73
2018-01-14T18:28:32.798Z,40.83
2018-01-14T18:34:36.295Z,39.00
2018-01-14T18:40:39.760Z,48.90
2018-01-14T18:46:43.950Z,48.77
2018-01-14T18:52:47.414Z,43.87
2018-01-14T18:58:50.859Z,47.03
2018-01-14T19:04:54.960Z,38.70
2018-01-14T19:10:58.677Z,33.10
2018-01-14T19:17:02.173Z,35.70
2018-01-14T19:23:05.657Z,34.63
2018-01-14T19:29:09.134Z,34.47
2018-01-14T19:35:12.620Z,39.50
2018-01-14T19:41:16.123Z,38.80
2018-01-14T19:47:19.598Z,41.83
2018-01-14T19:53:23.112Z,35.90
2018-01-14T19:59:28.368Z,36.57
2018-01-14T20:05:32.017Z,33.10
2018-01-14T20:11:35.495Z,37.10
2018-01-14T20:17:39.000Z,37.03
2018-01-14T20:23:42.493Z,42.13
2018-01-14T20:29:45.958Z,36.80
2018-01-14T20:35:49.428Z,38.23
2018-01-14T20:41:52.945Z,39.57
2018-01-14T20:47:56.705Z,38.17
2018-01-14T20:54:00.301Z,35.70
2018-01-14T21:00:04.515Z,30.30
2018-01-14T21:06:08.092Z,34.60
2018-01-14T21:12:11.671Z,35.77
2018-01-14T21:18:15.124Z,32.33
2018-01-14T21:24:19.376Z,31.70
2018-01-14T21:30:24.387Z,39.70
2018-01-14T21:36:28.396Z,29.47
2018-01-14T21:42:32.719Z,30.67
2018-01-14T21:48:36.190Z,33.70
2018-01-14T21:54:40.701Z,32.37
2018-01-14T22:00:44.209Z,31.70
2018-01-14T22:06:47.695Z,31.73
2018-01-14T22:12:51.190Z,35.13
2018-01-14T22:18:54.777Z,27.07
2018-01-14T22:24:58.739Z,32.00
2018-01-14T22:31:03.045Z,28.77
2018-01-14T22:37:06.534Z,28.03
2018-01-14T22:43:10.106Z,31.13
2018-01-14T22:49:13.628Z,35.83
2018-01-14T22:55:17.133Z,27.60
2018-01-14T23:01:20.656Z,33.50
2018-01-14T23:07:24.293Z,28.87
2018-01-14T23:13:27.926Z,23.47
2018-01-14T23:26:01.545Z,25.47
2018-01-14T23:32:05.036Z,23.03
2018-01-14T23:38:08.502Z,21.40
2018-01-14T23:44:11.985Z,22.90
2018-01-14T23:50:15.455Z,17.07
2018-01-14T23:56:19.096Z,17.40
